METAR Data

Data at: 1831 UTC 21 Nov 2018

METAR for:KPVC (Provincetown Muni, MA, US)
Text:KPVC 211756Z AUTO 23017KT 10SM FEW100 05/M02 A2990 RMK AO2 SLP124 T00501017 10050 20017 56035
Temperature: 5.0°C ( 41°F)
Dewpoint: -1.7°C ( 29°F) [RH = 62%]
Pressure (altimeter):29.90 inches Hg (1012.6 mb) [Sea level pressure: 1012.4 mb]
Winds:from the SW (230 degrees) at 20 MPH (17 knots; 8.7 m/s)
Visibility:10 or more sm (16+ km)
Ceiling:at least 12,000 feet AGL
Clouds: few clouds at 10000 feet AGL
QC Flag:automated observation with no human augmentation